Salem, MA

1:25 AM EDT on July 31, 2015 (GMT -0400)
Essex Street near Beckford | | Change Station
CLOSE
Current Station
Personal Weather Station
Location: Salem, MA
Elevation: 46 ft
Nearby Weather Stations

Elev 46 ft 42.52 °N, 70.90 °W | Updated 33 seconds ago

Partly Cloudy
Partly Cloudy
74.0 °F
Feels Like 72 °F
N
0.0
Wind Variable Wind from WSW
Gusts 0.0 mph

Today
High -- | Low -- °F
--% Chance of Precip.
Yesterday
High -- | Low -- °F
Precip. -- in
5:34 AM 8:04 PM
Full, 100% visible
Pressure 29.75 in
Visibility 7.0 miles
Clouds Clear
Heat Index 72 °F
Dew Point 72 °F
Humidity 93%
Rainfall 0.00 in
Snow Depth Not available.
UV 0 out of 12
Pollen 5.10 out of 12
Air Quality Not available.
Flu Activity Not available.
METAR KBVY 310453Z AUTO 25005KT 7SM CLR 22/21 A2977 RMK AO2 SLP074 T02220206 403280206

More Conditions Fewer Conditions

Pressure 29.75 in
Visibility 7.0 miles
Clouds Clear
Heat Index 72 °F
Dew Point 72 °F
Humidity 93%
Rainfall 0.00 in
Snow Depth Not available.
UV 0 out of 12
Pollen 5.10 out of 12
Air Quality Not available.
Flu Activity Not available.
METAR KBVY 310453Z AUTO 25005KT 7SM CLR 22/21 A2977 RMK AO2 SLP074 T02220206 403280206

More Conditions Fewer Conditions

10-Day Weather Forecast

×

Almanac

Astronomy

Jul. 31, 2015 Rise Set
Actual Time
Civil Twilight
Nautical Twilight
Astronomical Twilight
Moon
Length of Visible Light
Length of Day
Tomorrow will be .
, % of the Moon is Illuminated

Today's Extremes

State Highs State Lows

Community

WunderPhotos

Upload Photos

1,842,616 photos uploaded!

WunderBlogs® & News

Nearby

Air Quality

  Air Quality AQ Index Pollutant
Not available.

Snow Depth

Station Depth Elevation

Earthquake Activity

City Distance Mag. Time & Date
Minimum magnitude displayed is 2.5.

Coastal Water Temperatures

Place Temperature

Stations

Nearby Weather Stations

Station Location Temp. Windchill Dew Point Humidity Wind Precip. Elev Updated Type